Terminal Aerodrome Forecast
Issued by NWS Mt. Holly, NJ

Home | Current Version | Previous Version | Text Only | Print | Product List | Glossary On
Versions: 1 2 3 4 5 6 7 8 9 10 11 12 13 14 15 16 17 18 19 20 21 22 23 24 25 26
000
FTUS41 KPHI 300538
TAFTTN
TAF
KTTN 300538Z 3006/0106 01006KT P6SM SCT250
     FM300900 04008KT P6SM BKN050
      TEMPO 3012/3014 -SHRA
     FM301500 10010KT P6SM BKN035
     FM302200 10010G20KT P6SM OVC025
     FM010000 10014G20KT P6SM OVC015
     FM010200 10012KT 4SM BR OVC007=

USA.gov is the U.S. government's official web portal to all federal, state and local government web resources and services.